createdAt,value
2022-08-17T00:02:25.506Z,75.23
2022-08-17T00:04:53.862Z,74.97
2022-08-17T00:07:20.618Z,74.72
2022-08-17T00:09:47.292Z,74.75
2022-08-17T00:12:43.565Z,74.88
2022-08-17T00:15:01.340Z,75.05
2022-08-17T00:17:28.022Z,75.04
2022-08-17T00:19:54.701Z,74.99
2022-08-17T00:22:34.726Z,74.86
2022-08-17T00:25:07.208Z,74.92
2022-08-17T00:27:34.551Z,74.91
2022-08-17T00:30:01.263Z,74.83
2022-08-17T00:33:14.415Z,74.82
2022-08-17T00:35:18.394Z,74.69
2022-08-17T00:37:45.353Z,74.90
2022-08-17T00:40:14.417Z,74.72
2022-08-17T00:42:42.535Z,74.60
2022-08-17T00:45:12.398Z,74.48
2022-08-17T00:47:39.377Z,74.67
2022-08-17T00:50:10.284Z,74.54
2022-08-17T00:52:42.553Z,75.10
2022-08-17T00:55:09.495Z,75.31
2022-08-17T00:57:42.179Z,75.32
2022-08-17T01:00:21.414Z,75.64
2022-08-17T01:02:48.984Z,75.89
2022-08-17T01:05:19.969Z,76.01
2022-08-17T01:07:48.239Z,76.01
2022-08-17T01:11:00.423Z,75.72
2022-08-17T01:13:05.258Z,76.10
2022-08-17T01:15:36.503Z,75.99
2022-08-17T01:18:05.511Z,76.26
2022-08-17T01:20:34.468Z,75.98
2022-08-17T01:23:20.485Z,76.07
2022-08-17T01:25:51.212Z,76.19
2022-08-17T01:28:52.404Z,76.04
2022-08-17T01:31:08.434Z,76.29
2022-08-17T01:33:35.836Z,76.62
2022-08-17T01:36:04.474Z,76.70
2022-08-17T01:38:31.950Z,76.68
2022-08-17T01:41:03.370Z,76.72
2022-08-17T01:43:44.057Z,76.56
2022-08-17T01:46:21.889Z,76.86
2022-08-17T01:48:48.661Z,76.61
2022-08-17T01:51:16.065Z,76.88
2022-08-17T01:53:48.489Z,76.81
2022-08-17T01:56:18.437Z,76.85
2022-08-17T01:58:45.785Z,76.98
2022-08-17T02:01:14.904Z,77.08
2022-08-17T02:03:42.352Z,77.22
2022-08-17T02:06:28.329Z,77.35
2022-08-17T02:09:02.245Z,76.94
2022-08-17T02:11:32.425Z,77.08
2022-08-17T02:14:03.167Z,76.87
2022-08-17T02:16:37.687Z,76.74
2022-08-17T02:19:11.030Z,76.77
2022-08-17T02:21:39.201Z,76.88
2022-08-17T02:24:59.931Z,76.86
2022-08-17T02:27:10.107Z,76.69
2022-08-17T02:29:37.288Z,76.87
2022-08-17T02:32:05.096Z,76.08
2022-08-17T02:34:32.470Z,75.91
2022-08-17T02:36:59.342Z,75.96
2022-08-17T02:39:26.004Z,75.77
2022-08-17T02:42:01.801Z,75.92
2022-08-17T02:44:39.211Z,75.69
2022-08-17T02:47:09.491Z,75.57
2022-08-17T02:49:36.652Z,75.54
2022-08-17T02:52:06.999Z,75.01
2022-08-17T02:54:40.210Z,74.55
2022-08-17T02:57:10.447Z,74.51
2022-08-17T02:59:39.023Z,74.80
2022-08-17T03:02:11.304Z,74.46
2022-08-17T03:04:38.481Z,74.69
2022-08-17T03:07:05.439Z,74.91
2022-08-17T03:09:32.880Z,74.68
2022-08-17T03:12:12.984Z,74.82
2022-08-17T03:14:43.415Z,75.04
2022-08-17T03:17:16.998Z,75.58
2022-08-17T03:19:44.971Z,75.79
2022-08-17T03:22:36.873Z,75.64
2022-08-17T03:24:58.512Z,76.06
2022-08-17T03:27:25.294Z,76.01
2022-08-17T03:29:51.973Z,76.30
2022-08-17T03:32:20.757Z,76.62
2022-08-17T03:34:47.502Z,76.45
2022-08-17T03:37:14.787Z,76.73
2022-08-17T03:39:41.478Z,77.01
2022-08-17T03:42:31.278Z,77.10
2022-08-17T03:45:00.380Z,77.21
2022-08-17T03:47:45.696Z,77.13
2022-08-17T03:50:32.466Z,77.85
2022-08-17T03:53:18.476Z,77.83
2022-08-17T03:56:03.478Z,78.17
2022-08-17T03:58:30.165Z,77.61
2022-08-17T04:00:56.966Z,77.59
2022-08-17T04:03:23.930Z,78.01
2022-08-17T04:05:50.610Z,78.08
2022-08-17T04:08:17.260Z,77.92
2022-08-17T04:10:45.151Z,77.88
2022-08-17T04:13:12.900Z,77.60
2022-08-17T04:15:40.238Z,78.07
2022-08-17T04:18:07.729Z,77.53
2022-08-17T04:20:38.064Z,77.32
2022-08-17T04:23:07.005Z,77.07
2022-08-17T04:25:36.457Z,76.93
2022-08-17T04:28:05.097Z,77.01
2022-08-17T04:30:37.909Z,76.86
2022-08-17T04:33:10.204Z,76.63
2022-08-17T04:35:43.163Z,76.48
2022-08-17T04:38:18.000Z,76.70
2022-08-17T04:41:03.914Z,76.25
2022-08-17T04:43:32.556Z,76.24
2022-08-17T04:46:04.935Z,75.82
2022-08-17T04:48:37.783Z,75.85
2022-08-17T04:51:09.852Z,75.18
2022-08-17T04:53:37.671Z,75.35
2022-08-17T04:56:05.297Z,74.92
2022-08-17T04:58:32.264Z,74.86
2022-08-17T05:00:59.081Z,74.41
2022-08-17T05:03:25.940Z,73.46
2022-08-17T05:05:53.787Z,73.04
2022-08-17T05:08:21.485Z,73.26
2022-08-17T05:10:49.447Z,72.38
2022-08-17T05:13:22.999Z,72.22
2022-08-17T05:15:54.896Z,72.20
2022-08-17T05:18:22.308Z,72.13
2022-08-17T05:20:51.350Z,71.98
2022-08-17T05:23:21.240Z,71.74
2022-08-17T05:25:50.847Z,71.75
2022-08-17T05:28:20.035Z,71.39
2022-08-17T05:30:51.599Z,71.26
2022-08-17T05:33:24.401Z,70.34
2022-08-17T05:35:53.138Z,69.98
2022-08-17T05:38:22.449Z,69.93
2022-08-17T05:40:49.549Z,70.32
2022-08-17T05:43:23.834Z,70.47
2022-08-17T05:45:56.592Z,69.51
2022-08-17T05:48:35.605Z,69.77
2022-08-17T05:51:22.979Z,69.45
2022-08-17T05:54:19.914Z,68.83
2022-08-17T05:56:56.878Z,68.77
2022-08-17T05:59:42.446Z,68.46
2022-08-17T06:02:18.230Z,67.85
2022-08-17T06:04:50.610Z,67.95
2022-08-17T06:07:35.152Z,67.75
2022-08-17T06:10:24.705Z,67.67
2022-08-17T06:13:08.476Z,67.67
2022-08-17T06:15:56.744Z,67.47
2022-08-17T06:18:28.725Z,66.85
2022-08-17T06:21:01.789Z,66.89
2022-08-17T06:23:54.189Z,68.27
2022-08-17T06:26:38.493Z,68.23
2022-08-17T06:29:31.052Z,67.86
2022-08-17T06:31:57.816Z,67.94
2022-08-17T06:34:24.682Z,67.78
2022-08-17T06:37:15.422Z,66.99
2022-08-17T06:40:08.677Z,66.94
2022-08-17T06:43:06.003Z,67.42
2022-08-17T06:46:01.792Z,69.09
2022-08-17T06:48:42.517Z,68.16
2022-08-17T06:51:28.021Z,67.14
2022-08-17T06:54:15.300Z,67.67
2022-08-17T06:56:53.033Z,68.75
2022-08-17T06:59:55.490Z,68.28
2022-08-17T07:02:53.007Z,68.54
2022-08-17T07:05:46.895Z,67.05
2022-08-17T07:08:35.161Z,67.81
2022-08-17T07:11:06.845Z,68.19
2022-08-17T07:13:43.983Z,67.17
2022-08-17T07:16:27.506Z,68.18
2022-08-17T07:18:56.786Z,66.45
2022-08-17T07:21:34.594Z,65.21
2022-08-17T07:24:30.233Z,65.03
2022-08-17T07:27:09.981Z,64.54
2022-08-17T07:29:49.562Z,63.49
2022-08-17T07:32:20.204Z,63.10
2022-08-17T07:35:19.904Z,62.71
2022-08-17T07:38:25.485Z,62.21
2022-08-17T07:40:57.675Z,61.54
2022-08-17T07:43:38.151Z,62.53
2022-08-17T07:46:38.483Z,60.14
2022-08-17T07:49:07.922Z,60.05
2022-08-17T07:51:39.713Z,60.62
2022-08-17T07:54:15.564Z,59.29
2022-08-17T07:56:49.887Z,59.52
2022-08-17T07:59:23.757Z,60.41
2022-08-17T08:01:57.603Z,59.78
2022-08-17T08:07:16.797Z,58.09
2022-08-17T08:09:46.966Z,57.83
2022-08-17T08:12:33.882Z,55.92
2022-08-17T08:15:33.365Z,56.75
2022-08-17T08:18:03.054Z,56.73
2022-08-17T08:20:53.366Z,56.66
2022-08-17T08:23:37.506Z,56.18
2022-08-17T08:26:36.087Z,56.62
2022-08-17T08:29:19.288Z,56.25
2022-08-17T08:32:02.191Z,55.91
2022-08-17T08:35:01.547Z,54.56
2022-08-17T08:37:42.012Z,54.18
2022-08-17T08:40:44.339Z,52.50
2022-08-17T08:43:32.206Z,52.76
2022-08-17T08:46:20.884Z,52.30
2022-08-17T08:49:14.387Z,53.34
2022-08-17T08:52:03.165Z,51.57
2022-08-17T08:54:47.613Z,51.73
2022-08-17T08:57:32.919Z,52.42
2022-08-17T09:00:13.091Z,51.43
2022-08-17T09:02:58.549Z,51.42
2022-08-17T09:05:49.909Z,50.29
2022-08-17T09:08:40.978Z,50.54
2022-08-17T09:11:31.235Z,50.60
2022-08-17T09:14:22.125Z,48.91
2022-08-17T09:17:24.181Z,48.75
2022-08-17T09:20:01.210Z,49.15
2022-08-17T09:22:37.176Z,47.13
2022-08-17T09:25:10.070Z,46.73
2022-08-17T09:28:03.945Z,46.01
2022-08-17T09:31:10.298Z,45.20
2022-08-17T09:33:47.064Z,44.95
2022-08-17T09:36:22.967Z,45.93
2022-08-17T09:39:15.114Z,45.47
2022-08-17T09:41:50.403Z,44.08
2022-08-17T09:44:41.567Z,44.61
2022-08-17T09:47:32.392Z,44.33
2022-08-17T09:51:04.173Z,43.97
2022-08-17T09:53:14.633Z,43.82
2022-08-17T09:55:52.017Z,43.01
2022-08-17T09:58:29.615Z,43.65
2022-08-17T10:01:29.459Z,42.31
2022-08-17T10:04:15.593Z,41.93
2022-08-17T10:07:19.957Z,41.87
2022-08-17T10:09:49.533Z,41.31
2022-08-17T10:12:34.558Z,41.07
2022-08-17T10:15:09.574Z,40.48
2022-08-17T10:18:07.492Z,39.84
2022-08-17T10:20:42.970Z,39.32
2022-08-17T10:23:46.807Z,40.76
2022-08-17T10:26:23.146Z,39.09
2022-08-17T10:28:55.851Z,38.43
2022-08-17T10:31:39.782Z,39.86
2022-08-17T10:34:12.373Z,38.74
2022-08-17T10:36:48.377Z,39.48
2022-08-17T10:39:21.144Z,39.55
2022-08-17T10:41:52.962Z,39.73
2022-08-17T10:44:48.392Z,38.23
2022-08-17T10:47:18.741Z,38.84
2022-08-17T10:49:54.037Z,37.36
2022-08-17T10:52:21.825Z,36.13
2022-08-17T10:55:11.185Z,38.00
2022-08-17T10:57:43.783Z,35.63
2022-08-17T11:00:15.930Z,35.91
2022-08-17T11:02:54.531Z,36.96
2022-08-17T11:05:24.118Z,36.99
2022-08-17T11:08:22.185Z,35.97
2022-08-17T11:11:10.785Z,36.47
2022-08-17T11:13:52.467Z,37.71
2022-08-17T11:16:53.284Z,37.24
2022-08-17T11:19:56.617Z,36.06
2022-08-17T11:22:44.668Z,36.02
2022-08-17T11:25:20.473Z,34.66
2022-08-17T11:27:53.670Z,36.17
2022-08-17T11:30:54.598Z,36.13
2022-08-17T11:33:56.911Z,34.72
2022-08-17T11:36:38.861Z,34.51
2022-08-17T11:39:26.243Z,34.45
2022-08-17T11:41:58.123Z,34.48
2022-08-17T11:44:56.410Z,33.92
2022-08-17T11:48:26.123Z,31.57
2022-08-17T11:51:18.164Z,30.94
2022-08-17T11:53:45.886Z,30.24
2022-08-17T11:56:35.711Z,29.49
2022-08-17T11:59:02.910Z,29.49
2022-08-17T12:01:32.129Z,28.87
2022-08-17T12:04:19.042Z,29.00
2022-08-17T12:06:52.234Z,28.16
2022-08-17T12:09:24.953Z,29.37
2022-08-17T12:12:25.102Z,29.19
2022-08-17T12:15:12.924Z,27.42
2022-08-17T12:17:42.876Z,28.10
2022-08-17T12:20:12.685Z,27.24
2022-08-17T12:23:01.144Z,26.86
2022-08-17T12:25:49.349Z,27.34
2022-08-17T12:28:32.644Z,26.25
2022-08-17T12:31:06.417Z,26.53
2022-08-17T12:33:35.985Z,25.97
2022-08-17T12:36:08.738Z,26.28
2022-08-17T12:38:37.996Z,26.11
2022-08-17T12:41:26.384Z,25.07
2022-08-17T12:43:58.659Z,24.57
2022-08-17T12:46:25.782Z,23.78
2022-08-17T12:48:59.267Z,24.71
2022-08-17T12:51:29.185Z,26.99
2022-08-17T12:53:56.477Z,27.49
2022-08-17T12:56:23.238Z,27.16
2022-08-17T12:58:54.129Z,27.64
2022-08-17T13:01:23.492Z,27.41
2022-08-17T13:03:54.271Z,27.43
2022-08-17T13:06:29.078Z,27.18
2022-08-17T13:08:55.880Z,27.31
2022-08-17T13:11:24.942Z,26.43
2022-08-17T13:13:56.371Z,25.06
2022-08-17T13:16:30.715Z,24.45
2022-08-17T13:19:08.554Z,23.43
2022-08-17T13:21:37.937Z,23.48
2022-08-17T13:24:10.496Z,23.79
2022-08-17T13:26:49.616Z,24.32
2022-08-17T13:29:24.068Z,25.32
2022-08-17T13:32:02.730Z,25.03
2022-08-17T13:35:11.553Z,25.10
2022-08-17T13:37:34.364Z,25.30
2022-08-17T13:40:10.209Z,27.39
2022-08-17T13:42:52.627Z,28.34
2022-08-17T13:45:34.938Z,27.70
2022-08-17T13:48:13.816Z,27.33
2022-08-17T13:51:07.380Z,28.83
2022-08-17T13:53:56.688Z,29.66
2022-08-17T13:56:38.443Z,29.25
2022-08-17T13:59:15.834Z,30.43
2022-08-17T14:01:50.951Z,30.71
2022-08-17T14:04:27.896Z,31.22
2022-08-17T14:07:00.596Z,30.63
2022-08-17T14:09:37.222Z,30.75
2022-08-17T14:12:09.271Z,30.70
2022-08-17T14:14:36.462Z,30.17
2022-08-17T14:17:03.611Z,30.25
2022-08-17T14:19:30.313Z,29.81
2022-08-17T14:21:59.085Z,29.49
2022-08-17T14:24:32.027Z,29.82
2022-08-17T14:27:00.358Z,30.71
2022-08-17T14:29:29.139Z,30.26
2022-08-17T14:31:57.461Z,30.77
2022-08-17T14:34:25.649Z,30.25
2022-08-17T14:36:52.462Z,29.98
2022-08-17T14:39:19.731Z,29.08
2022-08-17T14:41:46.484Z,28.81
2022-08-17T14:44:13.488Z,28.17
2022-08-17T14:46:45.163Z,28.04
2022-08-17T14:49:13.199Z,26.29
2022-08-17T14:51:43.721Z,26.69
2022-08-17T14:54:11.559Z,26.39
2022-08-17T14:57:11.552Z,28.05
2022-08-17T14:59:45.061Z,27.91
2022-08-17T15:02:12.415Z,27.37
2022-08-17T15:04:44.923Z,27.64
2022-08-17T15:07:12.470Z,26.78
2022-08-17T15:09:39.294Z,26.87
2022-08-17T15:12:08.936Z,26.36
2022-08-17T15:14:36.291Z,28.34
2022-08-17T15:17:03.857Z,28.31
2022-08-17T15:19:30.875Z,27.12
2022-08-17T15:21:57.600Z,29.13
2022-08-17T15:24:24.238Z,29.66
2022-08-17T15:26:51.563Z,30.02
2022-08-17T15:29:18.420Z,30.00
2022-08-17T15:31:45.198Z,30.98
2022-08-17T15:34:11.957Z,30.86
2022-08-17T15:36:38.918Z,30.75
2022-08-17T15:39:15.830Z,31.33
2022-08-17T15:41:47.348Z,33.06
2022-08-17T15:44:30.075Z,33.56
2022-08-17T15:46:59.216Z,33.70
2022-08-17T15:49:25.861Z,33.79
2022-08-17T15:51:52.483Z,34.54
2022-08-17T15:54:22.850Z,35.43
2022-08-17T15:56:50.317Z,35.16
2022-08-17T15:59:16.950Z,34.90
2022-08-17T16:02:33.627Z,36.03
2022-08-17T16:04:31.768Z,36.21
2022-08-17T16:06:59.666Z,36.49
2022-08-17T16:09:26.468Z,36.79
2022-08-17T16:12:14.464Z,36.38
2022-08-17T16:14:41.220Z,36.85
2022-08-17T16:17:39.052Z,36.71
2022-08-17T16:19:56.215Z,37.13
2022-08-17T16:22:37.638Z,37.87
2022-08-17T16:25:08.690Z,37.80
2022-08-17T16:27:35.341Z,38.45
2022-08-17T16:30:02.314Z,38.52
2022-08-17T16:32:31.888Z,38.95
2022-08-17T16:35:11.280Z,38.88
2022-08-17T16:37:40.392Z,39.09
2022-08-17T16:40:13.854Z,39.15
2022-08-17T16:42:41.640Z,39.86
2022-08-17T16:45:13.842Z,40.46
2022-08-17T16:47:41.997Z,40.39
2022-08-17T16:50:14.066Z,40.83
2022-08-17T16:52:41.625Z,40.46
2022-08-17T16:55:10.525Z,40.97
2022-08-17T16:57:49.947Z,40.20
2022-08-17T17:00:19.406Z,39.91
2022-08-17T17:02:49.596Z,39.77
2022-08-17T17:05:43.546Z,39.76
2022-08-17T17:08:44.500Z,39.61
2022-08-17T17:11:19.384Z,39.50
2022-08-17T17:13:54.433Z,39.86
2022-08-17T17:16:47.088Z,39.89
2022-08-17T17:19:38.499Z,39.99
2022-08-17T17:22:26.766Z,40.61
2022-08-17T17:25:19.320Z,41.17
2022-08-17T17:28:00.875Z,41.72
2022-08-17T17:30:53.237Z,41.84
2022-08-17T17:33:25.091Z,42.17
2022-08-17T17:35:51.701Z,42.49
2022-08-17T17:38:29.470Z,42.43
2022-08-17T17:41:02.472Z,42.67
2022-08-17T17:43:40.182Z,42.27
2022-08-17T17:46:27.184Z,42.96
2022-08-17T17:48:56.839Z,42.25
2022-08-17T17:52:09.605Z,42.31
2022-08-17T17:55:15.814Z,43.18
2022-08-17T17:57:52.997Z,43.73
2022-08-17T18:00:30.395Z,44.08
2022-08-17T18:03:38.276Z,44.76
2022-08-17T18:06:14.999Z,45.12
2022-08-17T18:09:02.091Z,45.36
2022-08-17T18:12:10.688Z,45.50
2022-08-17T18:15:15.305Z,46.12
2022-08-17T18:18:10.737Z,46.43
2022-08-17T18:20:46.659Z,46.56
2022-08-17T18:23:27.634Z,46.72
2022-08-17T18:25:58.848Z,46.56
2022-08-17T18:28:41.407Z,46.48
2022-08-17T18:31:19.260Z,46.91
2022-08-17T18:33:52.858Z,47.30
2022-08-17T18:36:32.543Z,46.98
2022-08-17T18:39:18.349Z,46.82
2022-08-17T18:41:48.600Z,46.64
2022-08-17T18:44:37.834Z,46.86
2022-08-17T18:47:25.986Z,46.68
2022-08-17T18:49:57.808Z,46.88
2022-08-17T18:52:33.204Z,46.88
2022-08-17T18:54:59.854Z,47.71
2022-08-17T18:57:39.700Z,47.52
2022-08-17T19:00:19.308Z,47.91
2022-08-17T19:02:54.890Z,48.14
2022-08-17T19:05:41.058Z,48.49
2022-08-17T19:08:17.884Z,48.90
2022-08-17T19:10:47.399Z,49.00
2022-08-17T19:13:35.404Z,49.51
2022-08-17T19:16:15.057Z,49.27
2022-08-17T19:19:23.716Z,49.95
2022-08-17T19:21:56.244Z,49.67
2022-08-17T19:24:25.486Z,49.74
2022-08-17T19:27:41.825Z,50.02
2022-08-17T19:30:15.437Z,50.70
2022-08-17T19:32:42.585Z,50.32
2022-08-17T19:35:16.566Z,50.61
2022-08-17T19:38:19.293Z,51.06
2022-08-17T19:41:11.939Z,51.23
2022-08-17T19:43:55.717Z,51.47
2022-08-17T19:46:35.599Z,51.81
2022-08-17T19:49:22.745Z,52.10
2022-08-17T19:52:37.583Z,51.95
2022-08-17T19:55:26.218Z,52.54
2022-08-17T19:58:11.233Z,52.99
2022-08-17T20:00:50.484Z,53.38
2022-08-17T20:03:29.926Z,53.26
2022-08-17T20:06:15.525Z,53.32
2022-08-17T20:08:55.368Z,53.76
2022-08-17T20:11:31.446Z,54.35
2022-08-17T20:14:01.048Z,54.21
2022-08-17T20:16:27.795Z,54.30
2022-08-17T20:19:08.544Z,54.38
2022-08-17T20:22:15.440Z,55.00
2022-08-17T20:24:51.062Z,54.91
2022-08-17T20:27:31.908Z,54.80
2022-08-17T20:29:58.716Z,55.19
2022-08-17T20:32:32.992Z,55.20
2022-08-17T20:35:07.753Z,55.19
2022-08-17T20:37:35.941Z,55.52
2022-08-17T20:40:05.795Z,56.09
2022-08-17T20:42:34.252Z,56.21
2022-08-17T20:45:25.110Z,56.22
2022-08-17T20:48:30.582Z,55.98
2022-08-17T20:50:51.864Z,55.79
2022-08-17T20:53:46.568Z,56.47
2022-08-17T20:56:45.239Z,56.43
2022-08-17T20:59:21.308Z,56.61
2022-08-17T21:02:12.425Z,56.65
2022-08-17T21:04:57.439Z,56.96
2022-08-17T21:07:42.739Z,56.59
2022-08-17T21:10:35.691Z,57.52
2022-08-17T21:13:10.232Z,56.93
2022-08-17T21:15:54.400Z,57.01
2022-08-17T21:18:55.067Z,57.36
2022-08-17T21:21:33.644Z,57.44
2022-08-17T21:24:17.719Z,58.27
2022-08-17T21:27:02.239Z,59.16
2022-08-17T21:29:34.091Z,59.49
2022-08-17T21:32:08.998Z,60.29
2022-08-17T21:35:15.604Z,60.39
2022-08-17T21:37:44.935Z,60.68
2022-08-17T21:40:18.650Z,60.51
2022-08-17T21:42:52.752Z,60.51
2022-08-17T21:45:38.128Z,60.71
2022-08-17T21:48:20.438Z,61.15
2022-08-17T21:51:08.989Z,61.33
2022-08-17T21:53:51.253Z,60.90
2022-08-17T21:56:41.762Z,62.18
2022-08-17T21:59:35.700Z,62.11
2022-08-17T22:02:19.878Z,62.50
2022-08-17T22:05:06.989Z,62.45
2022-08-17T22:08:02.250Z,62.83
2022-08-17T22:10:41.793Z,63.27
2022-08-17T22:13:17.028Z,63.39
2022-08-17T22:15:47.723Z,62.91
2022-08-17T22:18:20.379Z,63.54
2022-08-17T22:20:55.756Z,63.82
2022-08-17T22:23:50.004Z,63.74
2022-08-17T22:26:20.001Z,63.67
2022-08-17T22:28:57.564Z,64.10
2022-08-17T22:31:32.719Z,64.76
2022-08-17T22:34:02.384Z,65.18
2022-08-17T22:36:42.261Z,65.45
2022-08-17T22:39:11.596Z,65.34
2022-08-17T22:41:59.474Z,66.17
2022-08-17T22:44:32.054Z,66.06
2022-08-17T22:47:49.185Z,67.17
2022-08-17T22:50:26.039Z,67.53
2022-08-17T22:53:19.557Z,67.71
2022-08-17T22:56:15.489Z,67.78
2022-08-17T22:59:09.875Z,68.29
2022-08-17T23:01:39.240Z,67.64
2022-08-17T23:04:32.961Z,66.84
2022-08-17T23:07:00.714Z,66.89
2022-08-17T23:09:29.937Z,66.69
2022-08-17T23:11:58.721Z,66.55
2022-08-17T23:14:35.054Z,67.14
2022-08-17T23:17:03.339Z,66.52
2022-08-17T23:19:32.812Z,67.26
2022-08-17T23:22:04.282Z,66.69
2022-08-17T23:24:35.611Z,66.54
2022-08-17T23:27:09.869Z,66.92
2022-08-17T23:29:42.357Z,66.49
2022-08-17T23:32:17.707Z,66.49
2022-08-17T23:34:47.038Z,66.75
2022-08-17T23:37:15.771Z,66.52
2022-08-17T23:39:45.159Z,66.65
2022-08-17T23:42:16.512Z,67.16
2022-08-17T23:44:44.828Z,67.27
2022-08-17T23:47:12.592Z,67.83
2022-08-17T23:49:42.368Z,67.88
2022-08-17T23:52:16.516Z,67.79
2022-08-17T23:54:47.315Z,67.74
2022-08-17T23:57:20.117Z,67.67
